createdAt,value
2018-06-21T00:00:27.570Z,99.90
2018-06-21T00:02:56.556Z,99.90
2018-06-21T00:05:26.372Z,99.90
2018-06-21T00:07:55.568Z,99.90
2018-06-21T00:10:23.860Z,99.90
2018-06-21T00:12:54.692Z,99.90
2018-06-21T00:15:22.821Z,99.90
2018-06-21T00:17:51.552Z,99.90
2018-06-21T00:20:21.252Z,99.90
2018-06-21T00:22:50.199Z,99.90
2018-06-21T00:25:18.423Z,99.90
2018-06-21T00:27:46.827Z,99.90
2018-06-21T00:30:16.193Z,99.90
2018-06-21T00:32:44.625Z,99.90
2018-06-21T00:35:13.571Z,99.90
2018-06-21T00:37:43.486Z,99.90
2018-06-21T00:42:40.635Z,99.90
2018-06-21T00:45:10.918Z,99.90
2018-06-21T00:47:39.864Z,99.90
2018-06-21T00:50:09.794Z,99.90
2018-06-21T00:52:37.947Z,99.90
2018-06-21T00:55:07.344Z,99.90
2018-06-21T00:57:36.068Z,99.90
2018-06-21T01:00:05.869Z,99.90
2018-06-21T01:02:34.428Z,99.90
2018-06-21T01:05:02.586Z,99.90
2018-06-21T01:07:30.884Z,99.90
2018-06-21T01:09:59.144Z,99.90
2018-06-21T01:12:27.436Z,99.90
2018-06-21T01:14:55.905Z,99.90
2018-06-21T01:17:25.229Z,99.90
2018-06-21T01:19:53.563Z,99.90
2018-06-21T01:22:21.717Z,99.90
2018-06-21T01:24:49.811Z,99.90
2018-06-21T01:27:18.255Z,99.90
2018-06-21T01:29:46.567Z,99.90
2018-06-21T01:32:15.628Z,99.90
2018-06-21T01:34:44.661Z,99.90
2018-06-21T01:37:12.934Z,99.90
2018-06-21T01:39:41.103Z,99.90
2018-06-21T01:42:09.467Z,99.90
2018-06-21T01:44:39.103Z,99.90
2018-06-21T01:47:07.147Z,99.90
2018-06-21T01:49:35.938Z,99.90
2018-06-21T01:52:04.631Z,99.90
2018-06-21T01:54:33.043Z,99.90
2018-06-21T01:57:01.138Z,99.90
2018-06-21T01:59:29.952Z,99.90
2018-06-21T02:01:58.350Z,99.90
2018-06-21T02:04:26.368Z,99.90
2018-06-21T02:06:54.618Z,99.90
2018-06-21T02:09:22.782Z,99.90
2018-06-21T02:11:50.939Z,99.90
2018-06-21T02:14:20.107Z,99.90
2018-06-21T02:19:16.020Z,99.90
2018-06-21T02:21:44.442Z,99.90
2018-06-21T02:24:15.994Z,99.90
2018-06-21T02:26:44.220Z,99.90
2018-06-21T02:29:12.984Z,99.90
2018-06-21T02:31:41.003Z,99.90
2018-06-21T02:34:10.173Z,99.90
2018-06-21T02:36:38.192Z,99.90
2018-06-21T02:39:07.911Z,99.90
2018-06-21T02:41:36.986Z,99.90
2018-06-21T02:44:05.117Z,99.90
2018-06-21T02:46:33.371Z,99.90
2018-06-21T02:49:01.459Z,99.90
2018-06-21T02:51:30.843Z,99.90
2018-06-21T02:54:00.345Z,99.90
2018-06-21T02:56:29.523Z,99.90
2018-06-21T02:58:58.709Z,99.90
2018-06-21T03:01:27.517Z,99.90
2018-06-21T03:03:56.488Z,99.90
2018-06-21T03:06:24.559Z,99.90
2018-06-21T03:08:53.687Z,99.90
2018-06-21T03:11:24.823Z,99.90
2018-06-21T03:13:53.615Z,99.90
2018-06-21T03:16:21.687Z,99.90
2018-06-21T03:18:49.790Z,99.90
2018-06-21T03:21:19.465Z,99.90
2018-06-21T03:23:47.849Z,99.90
2018-06-21T03:26:17.075Z,99.90
2018-06-21T03:28:45.643Z,99.90
2018-06-21T03:31:13.731Z,99.90
2018-06-21T03:33:42.202Z,99.90
2018-06-21T03:36:10.794Z,99.90
2018-06-21T03:38:39.889Z,99.90
2018-06-21T03:41:08.126Z,99.90
2018-06-21T03:43:36.643Z,99.90
2018-06-21T03:46:04.703Z,99.90
2018-06-21T03:48:33.195Z,99.90
2018-06-21T03:53:29.494Z,99.90
2018-06-21T03:55:57.764Z,99.90
2018-06-21T03:58:26.123Z,99.90
2018-06-21T04:00:55.740Z,99.90
2018-06-21T04:03:25.578Z,99.90
2018-06-21T04:05:53.754Z,99.90
2018-06-21T04:08:23.936Z,99.90
2018-06-21T04:10:52.175Z,99.90
2018-06-21T04:18:39.302Z,99.90
2018-06-21T04:21:08.527Z,99.90
2018-06-21T04:23:36.849Z,99.90
2018-06-21T04:26:06.015Z,99.90
2018-06-21T04:28:34.354Z,99.90
2018-06-21T04:31:03.367Z,99.90
2018-06-21T04:33:32.537Z,99.90
2018-06-21T04:36:01.643Z,99.90
2018-06-21T04:38:29.739Z,99.90
2018-06-21T04:40:57.750Z,99.90
2018-06-21T04:43:25.847Z,99.90
2018-06-21T04:45:54.787Z,99.90
2018-06-21T04:48:24.239Z,99.90
2018-06-21T04:50:53.951Z,99.90
2018-06-21T04:53:22.072Z,99.90
2018-06-21T04:55:50.130Z,99.90
2018-06-21T04:58:18.679Z,99.90
2018-06-21T05:00:46.734Z,99.90
2018-06-21T05:03:15.944Z,99.90
2018-06-21T05:05:45.650Z,99.90
2018-06-21T05:08:14.163Z,99.90
2018-06-21T05:10:42.414Z,99.90
2018-06-21T05:13:10.438Z,99.90
2018-06-21T05:15:41.647Z,99.90
2018-06-21T05:18:12.304Z,99.90
2018-06-21T05:20:48.888Z,99.90
2018-06-21T05:23:18.544Z,99.90
2018-06-21T05:25:46.781Z,99.90
2018-06-21T05:28:14.874Z,99.90
2018-06-21T05:30:44.907Z,99.90
2018-06-21T05:33:13.367Z,99.90
2018-06-21T05:35:41.362Z,99.90
2018-06-21T05:38:09.369Z,99.90
2018-06-21T05:43:06.368Z,99.90
2018-06-21T05:45:34.829Z,99.90
2018-06-21T05:48:03.659Z,99.90
2018-06-21T05:50:32.883Z,99.90
2018-06-21T05:53:01.942Z,99.90
2018-06-21T05:55:31.006Z,99.90
2018-06-21T05:58:00.478Z,99.90
2018-06-21T06:00:31.343Z,99.90
2018-06-21T06:02:59.381Z,99.90
2018-06-21T06:05:29.444Z,99.90
2018-06-21T06:07:57.863Z,99.90
2018-06-21T06:10:26.732Z,99.90
2018-06-21T06:12:56.673Z,99.90
2018-06-21T06:15:24.801Z,99.90
2018-06-21T06:17:52.822Z,99.90
2018-06-21T06:20:21.318Z,99.90
2018-06-21T06:22:53.336Z,99.90
2018-06-21T06:25:21.573Z,99.90
2018-06-21T06:27:50.443Z,99.90
2018-06-21T06:30:18.683Z,99.90
2018-06-21T06:32:46.740Z,99.90
2018-06-21T06:35:15.922Z,99.90
2018-06-21T06:37:43.931Z,99.90
2018-06-21T06:40:12.324Z,99.90
2018-06-21T06:42:41.579Z,99.90
2018-06-21T06:45:11.610Z,99.90
2018-06-21T06:47:39.629Z,99.90
2018-06-21T06:50:07.878Z,99.90
2018-06-21T06:52:38.258Z,99.90
2018-06-21T06:55:07.471Z,99.80
2018-06-21T06:57:35.469Z,98.20
2018-06-21T07:00:04.601Z,98.60
2018-06-21T07:02:33.438Z,99.90
2018-06-21T07:05:01.971Z,99.90
2018-06-21T07:07:30.061Z,99.90
2018-06-21T07:09:58.802Z,99.00
2018-06-21T07:14:56.250Z,98.60
2018-06-21T07:17:24.667Z,98.80
2018-06-21T07:19:54.414Z,97.50
2018-06-21T07:22:22.514Z,97.90
2018-06-21T07:26:57.611Z,98.40
2018-06-21T07:29:25.731Z,98.20
2018-06-21T07:31:54.061Z,98.90
2018-06-21T07:34:23.178Z,99.60
2018-06-21T07:36:51.228Z,99.10
2018-06-21T07:39:21.574Z,97.60
2018-06-21T07:41:51.191Z,97.70
2018-06-21T07:44:20.822Z,97.00
2018-06-21T07:46:50.253Z,96.50
2018-06-21T07:49:19.346Z,95.90
2018-06-21T07:51:47.371Z,95.30
2018-06-21T07:54:18.143Z,95.90
2018-06-21T07:56:47.806Z,97.50
2018-06-21T07:59:17.159Z,95.20
2018-06-21T08:01:45.294Z,93.70
2018-06-21T08:04:13.489Z,94.20
2018-06-21T08:06:41.742Z,93.90
2018-06-21T08:09:13.624Z,94.50
2018-06-21T08:14:11.437Z,92.60
2018-06-21T08:16:44.583Z,92.40
2018-06-21T08:19:12.594Z,92.70
2018-06-21T08:21:41.091Z,91.80
2018-06-21T08:24:09.601Z,90.10
2018-06-21T08:26:39.808Z,88.80
2018-06-21T08:29:08.565Z,90.60
2018-06-21T08:31:38.777Z,90.40
2018-06-21T08:34:06.774Z,90.20
2018-06-21T08:36:35.304Z,90.90
2018-06-21T08:39:04.413Z,91.80
2018-06-21T08:41:33.772Z,91.50
2018-06-21T08:44:01.998Z,91.10
2018-06-21T08:46:31.938Z,90.50
2018-06-21T08:49:01.329Z,90.30
2018-06-21T08:51:30.030Z,89.70
2018-06-21T08:53:59.093Z,90.30
2018-06-21T08:56:27.331Z,88.30
2018-06-21T08:58:55.638Z,89.30
2018-06-21T09:01:23.792Z,88.30
2018-06-21T09:03:56.246Z,86.90
2018-06-21T09:06:24.518Z,86.00
2018-06-21T09:08:56.367Z,88.80
2018-06-21T09:11:24.546Z,90.10
2018-06-21T09:13:52.518Z,90.70
2018-06-21T09:16:23.558Z,91.60
2018-06-21T09:18:51.938Z,92.10
2018-06-21T09:21:20.726Z,92.60
2018-06-21T09:23:48.757Z,93.30
2018-06-21T09:26:16.890Z,94.10
2018-06-21T09:28:46.765Z,94.30
2018-06-21T09:31:15.939Z,94.90
2018-06-21T09:33:45.085Z,93.80
2018-06-21T09:36:13.171Z,93.70
2018-06-21T09:38:46.866Z,94.50
2018-06-21T09:41:20.534Z,95.20
2018-06-21T09:44:03.826Z,95.00
2018-06-21T09:46:33.876Z,95.30
2018-06-21T09:48:57.712Z,96.10
2018-06-21T09:51:26.353Z,96.70
2018-06-21T09:53:54.983Z,97.50
2018-06-21T09:56:25.125Z,98.10
2018-06-21T09:58:55.292Z,98.00
2018-06-21T10:01:27.105Z,97.70
2018-06-21T10:03:55.145Z,98.10
2018-06-21T10:06:25.137Z,98.80
2018-06-21T10:08:53.222Z,99.40
2018-06-21T10:11:21.232Z,99.80
2018-06-21T10:13:49.610Z,99.60
2018-06-21T10:16:17.586Z,99.30
2018-06-21T10:18:46.386Z,99.50
2018-06-21T10:21:16.190Z,99.60
2018-06-21T10:23:44.325Z,99.70
2018-06-21T10:26:12.635Z,99.90
2018-06-21T10:28:40.672Z,99.90
2018-06-21T10:31:09.226Z,99.90
2018-06-21T10:33:38.660Z,99.90
2018-06-21T10:36:07.073Z,99.90
2018-06-21T10:38:35.349Z,99.90
2018-06-21T10:41:04.232Z,99.90
2018-06-21T10:43:33.146Z,99.90
2018-06-21T10:46:01.170Z,99.90
2018-06-21T10:48:29.154Z,99.90
2018-06-21T10:50:57.254Z,99.90
2018-06-21T10:53:25.913Z,99.90
2018-06-21T10:55:54.482Z,99.90
2018-06-21T10:58:25.103Z,99.90
2018-06-21T11:00:53.251Z,99.90
2018-06-21T11:03:21.961Z,99.90
2018-06-21T11:05:50.056Z,99.90
2018-06-21T11:08:19.114Z,99.90
2018-06-21T11:10:48.351Z,99.90
2018-06-21T11:13:16.597Z,99.90
2018-06-21T11:15:48.977Z,99.90
2018-06-21T11:18:18.381Z,99.90
2018-06-21T11:20:47.189Z,99.90
2018-06-21T11:23:17.546Z,99.90
2018-06-21T11:25:46.008Z,99.90
2018-06-21T11:28:14.852Z,99.90
2018-06-21T11:30:43.231Z,99.90
2018-06-21T11:33:14.710Z,99.90
2018-06-21T11:35:42.998Z,99.90
2018-06-21T11:38:11.873Z,99.90
2018-06-21T11:40:41.257Z,99.90
2018-06-21T11:43:09.714Z,99.90
2018-06-21T11:45:38.418Z,99.90
2018-06-21T11:48:07.790Z,99.90
2018-06-21T11:50:38.407Z,99.90
2018-06-21T11:53:07.594Z,99.90
2018-06-21T11:55:41.728Z,99.90
2018-06-21T11:58:10.108Z,99.90
2018-06-21T12:00:39.691Z,99.90
2018-06-21T12:03:08.531Z,99.90
2018-06-21T12:05:38.611Z,99.90
2018-06-21T12:10:43.854Z,99.90
2018-06-21T12:13:13.767Z,99.90
2018-06-21T12:15:42.242Z,98.20
2018-06-21T12:18:11.355Z,97.60
2018-06-21T12:20:40.867Z,97.10
2018-06-21T12:23:08.979Z,96.10
2018-06-21T12:25:37.216Z,95.70
2018-06-21T12:28:05.444Z,94.70
2018-06-21T12:30:34.827Z,94.00
2018-06-21T12:33:03.328Z,93.40
2018-06-21T12:35:37.953Z,93.30
2018-06-21T12:38:06.550Z,93.00
2018-06-21T12:40:47.757Z,93.40
2018-06-21T12:43:21.634Z,92.20
2018-06-21T12:45:59.454Z,91.40
2018-06-21T12:48:27.935Z,89.30
2018-06-21T12:50:56.362Z,89.00
2018-06-21T12:53:25.379Z,82.70
2018-06-21T12:55:53.637Z,81.10
2018-06-21T12:58:21.712Z,81.10
2018-06-21T13:00:51.250Z,80.90
2018-06-21T13:03:22.770Z,80.10
2018-06-21T13:05:51.953Z,78.20
2018-06-21T13:08:32.815Z,79.80
2018-06-21T13:13:14.730Z,79.50
2018-06-21T13:15:42.701Z,82.00
2018-06-21T13:18:10.982Z,83.00
2018-06-21T13:20:39.927Z,84.00
2018-06-21T13:23:07.984Z,85.90
2018-06-21T13:25:36.734Z,85.10
2018-06-21T13:28:06.764Z,83.20
2018-06-21T13:30:34.850Z,84.00
2018-06-21T13:33:07.346Z,83.70
2018-06-21T13:35:38.242Z,85.00
2018-06-21T13:38:06.358Z,83.10
2018-06-21T13:40:34.763Z,80.70
2018-06-21T13:43:03.017Z,79.00
2018-06-21T13:45:31.286Z,78.30
2018-06-21T13:47:59.824Z,76.20
2018-06-21T13:50:28.472Z,76.50
2018-06-21T13:52:56.466Z,76.40
2018-06-21T13:55:24.703Z,75.00
2018-06-21T13:57:55.047Z,75.30
2018-06-21T14:00:23.353Z,73.20
2018-06-21T14:02:52.774Z,72.20
2018-06-21T14:05:21.685Z,72.20
2018-06-21T14:07:53.260Z,72.60
2018-06-21T14:10:22.078Z,69.60
2018-06-21T14:12:54.122Z,69.60
2018-06-21T14:15:28.910Z,68.50
2018-06-21T14:18:03.950Z,68.50
2018-06-21T14:20:32.338Z,70.00
2018-06-21T14:23:01.322Z,69.00
2018-06-21T14:25:29.578Z,68.00
2018-06-21T14:28:06.007Z,67.30
2018-06-21T14:30:35.012Z,68.00
2018-06-21T14:33:03.909Z,69.10
2018-06-21T14:35:32.778Z,69.50
2018-06-21T14:38:02.522Z,66.60
2018-06-21T14:40:30.883Z,67.20
2018-06-21T14:42:59.166Z,65.30
2018-06-21T14:45:28.356Z,64.10
2018-06-21T14:47:59.100Z,64.10
2018-06-21T14:50:27.367Z,60.60
2018-06-21T14:52:55.676Z,58.60
2018-06-21T14:55:25.608Z,57.00
2018-06-21T15:00:23.294Z,57.50
2018-06-21T15:02:54.852Z,60.00
2018-06-21T15:05:24.834Z,58.00
2018-06-21T15:07:53.934Z,57.50
2018-06-21T15:10:22.042Z,58.30
2018-06-21T15:12:51.543Z,59.10
2018-06-21T15:15:21.116Z,58.70
2018-06-21T15:17:49.595Z,57.30
2018-06-21T15:20:17.883Z,57.10
2018-06-21T15:22:46.234Z,57.10
2018-06-21T15:25:14.434Z,56.90
2018-06-21T15:27:43.922Z,57.00
2018-06-21T15:30:13.398Z,57.10
2018-06-21T15:32:44.075Z,58.20
2018-06-21T15:35:13.306Z,57.70
2018-06-21T15:37:43.121Z,60.20
2018-06-21T15:40:12.056Z,62.00
2018-06-21T15:45:12.342Z,62.10
2018-06-21T15:47:41.175Z,62.90
2018-06-21T15:50:12.166Z,62.20
2018-06-21T15:52:41.317Z,63.00
2018-06-21T15:55:11.770Z,61.60
2018-06-21T15:57:40.078Z,60.90
2018-06-21T16:00:10.735Z,62.40
2018-06-21T16:02:41.149Z,59.30
2018-06-21T16:05:09.373Z,60.60
2018-06-21T16:10:07.923Z,59.60
2018-06-21T16:12:37.270Z,59.20
2018-06-21T16:17:34.162Z,58.50
2018-06-21T16:20:05.027Z,57.60
2018-06-21T16:22:33.082Z,58.00
2018-06-21T16:25:01.144Z,57.40
2018-06-21T16:27:30.023Z,57.70
2018-06-21T16:30:05.081Z,57.80
2018-06-21T16:32:33.663Z,58.40
2018-06-21T16:35:04.360Z,58.80
2018-06-21T16:37:33.049Z,58.90
2018-06-21T16:40:02.324Z,59.20
2018-06-21T16:42:32.446Z,59.40
2018-06-21T16:45:00.686Z,58.40
2018-06-21T16:47:28.647Z,56.80
2018-06-21T16:49:57.718Z,56.70
2018-06-21T16:52:28.986Z,56.90
2018-06-21T16:54:59.662Z,57.30
2018-06-21T16:57:29.573Z,58.20
2018-06-21T16:59:59.322Z,58.70
2018-06-21T17:02:28.522Z,58.30
2018-06-21T17:04:56.593Z,58.80
2018-06-21T17:07:24.607Z,58.70
2018-06-21T17:09:53.615Z,59.50
2018-06-21T17:12:21.676Z,60.10
2018-06-21T17:14:52.814Z,60.20
2018-06-21T17:17:22.269Z,61.30
2018-06-21T17:19:50.791Z,60.40
2018-06-21T17:22:20.771Z,60.40
2018-06-21T17:24:49.416Z,61.30
2018-06-21T17:27:19.355Z,61.50
2018-06-21T17:29:47.378Z,62.00
2018-06-21T17:32:15.674Z,62.00
2018-06-21T17:34:44.602Z,62.30
2018-06-21T17:37:13.513Z,62.30
2018-06-21T17:39:42.482Z,61.80
2018-06-21T17:42:10.918Z,62.10
2018-06-21T17:44:40.058Z,62.20
2018-06-21T17:47:10.268Z,61.90
2018-06-21T17:49:38.531Z,61.70
2018-06-21T17:52:06.794Z,61.60
2018-06-21T17:57:05.574Z,61.00
2018-06-21T17:59:33.603Z,61.00
2018-06-21T18:02:01.579Z,61.70
2018-06-21T18:04:31.262Z,61.10
2018-06-21T18:09:27.075Z,60.70
2018-06-21T18:11:55.408Z,61.80
2018-06-21T18:14:23.604Z,62.30
2018-06-21T18:16:53.132Z,61.80
2018-06-21T18:19:26.796Z,62.00
2018-06-21T18:21:55.044Z,62.80
2018-06-21T18:24:23.652Z,62.20
2018-06-21T18:26:52.246Z,63.30
2018-06-21T18:29:22.541Z,63.40
2018-06-21T18:31:54.219Z,64.20
2018-06-21T18:34:29.194Z,64.40
2018-06-21T18:36:58.509Z,64.40
2018-06-21T18:39:29.785Z,64.80
2018-06-21T18:41:58.687Z,65.20
2018-06-21T18:44:29.386Z,64.50
2018-06-21T18:49:28.587Z,64.80
2018-06-21T18:51:56.946Z,65.10
2018-06-21T18:54:27.184Z,65.60
2018-06-21T18:56:55.808Z,64.80
2018-06-21T18:59:24.805Z,65.50
2018-06-21T19:01:54.770Z,65.40
2018-06-21T19:04:25.270Z,65.90
2018-06-21T19:06:59.570Z,65.80
2018-06-21T19:09:34.343Z,64.40
2018-06-21T19:14:33.342Z,64.60
2018-06-21T19:17:01.559Z,64.40
2018-06-21T19:19:31.814Z,64.00
2018-06-21T19:22:01.325Z,64.50
2018-06-21T19:24:31.223Z,64.60
2018-06-21T19:27:00.339Z,64.40
2018-06-21T19:29:31.857Z,65.50
2018-06-21T19:32:01.080Z,65.20
2018-06-21T19:34:29.794Z,64.90
2018-06-21T19:36:58.741Z,65.30
2018-06-21T19:39:29.330Z,65.80
2018-06-21T19:41:58.206Z,65.60
2018-06-21T19:44:28.872Z,65.80
2018-06-21T19:47:00.207Z,66.20
2018-06-21T19:49:29.750Z,66.20
2018-06-21T19:51:59.358Z,66.60
2018-06-21T19:54:28.778Z,67.00
2018-06-21T19:56:57.570Z,67.30
2018-06-21T19:59:29.085Z,68.00
2018-06-21T20:02:00.592Z,68.90
2018-06-21T20:04:29.366Z,69.30
2018-06-21T20:06:58.610Z,69.70
2018-06-21T20:09:30.107Z,70.30
2018-06-21T20:11:59.873Z,70.40
2018-06-21T20:14:30.517Z,71.10
2018-06-21T20:17:02.377Z,71.80
2018-06-21T20:19:39.097Z,72.90
2018-06-21T20:24:49.187Z,73.10
2018-06-21T20:27:17.667Z,73.40
2018-06-21T20:30:18.122Z,74.40
2018-06-21T20:32:48.090Z,74.90
2018-06-21T20:35:18.216Z,75.20
2018-06-21T20:37:46.580Z,75.80
2018-06-21T20:40:17.429Z,76.40
2018-06-21T20:42:46.676Z,76.60
2018-06-21T20:45:15.871Z,77.10
2018-06-21T20:47:46.601Z,77.70
2018-06-21T20:50:22.573Z,79.00
2018-06-21T20:52:53.241Z,78.70
2018-06-21T20:55:24.650Z,79.70
2018-06-21T20:57:59.739Z,80.20
2018-06-21T21:00:31.374Z,80.70
2018-06-21T21:03:01.674Z,81.10
2018-06-21T21:05:32.655Z,81.30
2018-06-21T21:08:02.017Z,82.00
2018-06-21T21:10:34.670Z,82.50
2018-06-21T21:13:05.432Z,82.90
2018-06-21T21:15:41.336Z,83.10
2018-06-21T21:20:45.678Z,83.70
2018-06-21T21:23:19.302Z,83.30
2018-06-21T21:25:57.488Z,83.50
2018-06-21T21:28:29.300Z,83.70
2018-06-21T21:30:59.227Z,84.00
2018-06-21T21:33:29.045Z,83.50
2018-06-21T21:35:59.287Z,84.10
2018-06-21T21:38:29.654Z,84.00
2018-06-21T21:40:59.834Z,84.30
2018-06-21T21:43:29.889Z,84.50
2018-06-21T21:45:59.101Z,85.00
2018-06-21T21:48:28.166Z,86.20
2018-06-21T21:50:58.366Z,86.60
2018-06-21T21:53:27.101Z,86.60
2018-06-21T21:55:56.027Z,86.70
2018-06-21T21:58:25.719Z,88.10
2018-06-21T22:00:55.892Z,88.50
2018-06-21T22:03:24.526Z,88.40
2018-06-21T22:08:21.943Z,89.60
2018-06-21T22:10:50.031Z,89.90
2018-06-21T22:13:19.239Z,89.90
2018-06-21T22:15:48.313Z,90.10
2018-06-21T22:18:17.733Z,90.10
2018-06-21T22:20:46.038Z,90.10
2018-06-21T22:23:14.759Z,90.30
2018-06-21T22:25:42.712Z,90.50
2018-06-21T22:28:14.332Z,90.70
2018-06-21T22:30:44.111Z,90.90
2018-06-21T22:33:12.062Z,91.00
2018-06-21T22:35:41.884Z,91.30
2018-06-21T22:38:13.059Z,91.90
2018-06-21T22:40:43.601Z,92.20
2018-06-21T22:43:13.837Z,92.40
2018-06-21T22:45:42.540Z,92.50
2018-06-21T22:48:11.624Z,92.80
2018-06-21T22:50:41.730Z,93.00
2018-06-21T22:53:11.296Z,93.20
2018-06-21T22:55:40.098Z,93.50
2018-06-21T22:58:09.649Z,94.00
2018-06-21T23:00:41.346Z,94.10
2018-06-21T23:03:11.378Z,94.40
2018-06-21T23:05:39.887Z,94.60
2018-06-21T23:08:10.799Z,95.10
2018-06-21T23:10:41.246Z,95.20
2018-06-21T23:13:10.699Z,95.30
2018-06-21T23:15:42.578Z,95.40
2018-06-21T23:18:13.103Z,95.50
2018-06-21T23:20:42.076Z,95.70
2018-06-21T23:23:10.512Z,95.90
2018-06-21T23:28:09.366Z,96.30
2018-06-21T23:30:38.338Z,96.50
2018-06-21T23:33:08.034Z,96.80
2018-06-21T23:35:45.983Z,97.00
2018-06-21T23:38:15.987Z,97.20
2018-06-21T23:40:45.246Z,97.30
2018-06-21T23:43:15.745Z,97.60
2018-06-21T23:45:48.106Z,97.80
2018-06-21T23:48:18.135Z,98.00
2018-06-21T23:50:47.239Z,98.10
2018-06-21T23:58:18.913Z,98.50
